createdAt,value
2022-08-03T00:00:28.376Z,95211.13
2022-08-03T00:02:55.475Z,95208.81
2022-08-03T00:05:22.473Z,95213.84
2022-08-03T00:07:49.470Z,95175.84
2022-08-03T00:10:17.166Z,95195.81
2022-08-03T00:12:44.170Z,95201.16
2022-08-03T00:15:16.474Z,95223.47
2022-08-03T00:17:52.902Z,95172.72
2022-08-03T00:20:21.783Z,95181.28
2022-08-03T00:22:49.482Z,95195.41
2022-08-03T00:25:16.875Z,95174.16
2022-08-03T00:27:43.653Z,95251.47
2022-08-03T00:30:10.635Z,95204.59
2022-08-03T00:32:38.831Z,95184.91
2022-08-03T00:35:20.456Z,95174.47
2022-08-03T00:37:59.865Z,95177.63
2022-08-03T00:40:27.029Z,95177.88
2022-08-03T00:42:54.998Z,95230.84
2022-08-03T00:45:24.167Z,95168.03
2022-08-03T00:47:51.594Z,95175.84
2022-08-03T00:50:19.870Z,95202.53
2022-08-03T00:52:51.938Z,95194.97
2022-08-03T00:55:18.829Z,95175.84
2022-08-03T00:57:45.727Z,95193.25
2022-08-03T01:00:15.443Z,95174.44
2022-08-03T01:02:42.532Z,95188.31
2022-08-03T01:05:10.760Z,95166.53
2022-08-03T01:07:55.739Z,95230.41
2022-08-03T01:10:26.709Z,95173.78
2022-08-03T01:14:01.747Z,95230.59
2022-08-03T01:16:36.713Z,95162.88
2022-08-03T01:19:22.564Z,95233.38
2022-08-03T01:22:07.571Z,95229.50
2022-08-03T01:24:51.457Z,95210.47
2022-08-03T01:27:43.036Z,95175.06
2022-08-03T01:30:12.658Z,95176.56
2022-08-03T01:33:00.753Z,95194.66
2022-08-03T01:35:52.154Z,95200.94
2022-08-03T01:38:36.098Z,95210.66
2022-08-03T01:41:11.064Z,95195.81
2022-08-03T01:44:27.508Z,95178.56
2022-08-03T01:46:28.888Z,95210.75
2022-08-03T01:48:57.376Z,95174.25
2022-08-03T01:51:58.663Z,95214.28
2022-08-03T01:54:14.795Z,95168.34
2022-08-03T01:56:43.839Z,95173.50
2022-08-03T01:59:12.805Z,95177.50
2022-08-03T02:02:15.294Z,95192.69
2022-08-03T02:04:29.564Z,95167.88
2022-08-03T02:07:01.238Z,95170.69
2022-08-03T02:09:31.224Z,95189.31
2022-08-03T02:11:59.225Z,95180.66
2022-08-03T02:14:28.436Z,95163.22
2022-08-03T02:16:58.691Z,95174.25
2022-08-03T02:19:30.412Z,95185.28
2022-08-03T02:22:01.913Z,95183.88
2022-08-03T02:24:30.114Z,95159.34
2022-08-03T02:26:57.703Z,95204.31
2022-08-03T02:29:38.785Z,95188.69
2022-08-03T02:32:12.654Z,95172.06
2022-08-03T02:34:42.641Z,95164.88
2022-08-03T02:37:13.211Z,95157.72
2022-08-03T02:39:42.958Z,95167.19
2022-08-03T02:42:12.804Z,95162.03
2022-08-03T02:44:47.766Z,95191.25
2022-08-03T02:47:15.784Z,95203.44
2022-08-03T02:49:51.076Z,95170.59
2022-08-03T02:52:21.753Z,95171.50
2022-08-03T02:54:51.322Z,95204.72
2022-08-03T02:57:20.063Z,95192.19
2022-08-03T02:59:47.811Z,95214.59
2022-08-03T03:02:17.336Z,95164.59
2022-08-03T03:05:51.720Z,95157.44
2022-08-03T03:07:39.137Z,95181.13
2022-08-03T03:10:21.545Z,95197.69
2022-08-03T03:12:52.280Z,95173.13
2022-08-03T03:15:19.221Z,95209.84
2022-08-03T03:17:47.813Z,95197.28
2022-08-03T03:20:16.039Z,95162.34
2022-08-03T03:22:56.640Z,95167.09
2022-08-03T03:25:24.719Z,95165.75
2022-08-03T03:27:51.798Z,95176.66
2022-08-03T03:30:22.012Z,95163.44
2022-08-03T03:32:49.137Z,95166.91
2022-08-03T03:35:16.833Z,95163.16
2022-08-03T03:37:43.627Z,95218.56
2022-08-03T03:40:14.503Z,95182.06
2022-08-03T03:42:41.607Z,95171.91
2022-08-03T03:45:09.169Z,95187.28
2022-08-03T03:47:36.144Z,95209.81
2022-08-03T03:50:04.807Z,95171.91
2022-08-03T03:52:32.883Z,95176.53
2022-08-03T03:55:01.243Z,95212.47
2022-08-03T03:57:29.405Z,95172.38
2022-08-03T03:59:56.492Z,95223.44
2022-08-03T04:02:23.479Z,95183.97
2022-08-03T04:05:08.694Z,95178.97
2022-08-03T04:08:22.322Z,95196.78
2022-08-03T04:11:03.010Z,95172.38
2022-08-03T04:13:37.015Z,95205.47
2022-08-03T04:16:05.313Z,95188.47
2022-08-03T04:18:34.848Z,95214.53
2022-08-03T04:21:08.735Z,95207.16
2022-08-03T04:23:40.177Z,95236.44
2022-08-03T04:26:10.035Z,95188.00
2022-08-03T04:28:39.975Z,95192.50
2022-08-03T04:31:07.444Z,95211.75
2022-08-03T04:33:37.347Z,95190.69
2022-08-03T04:36:09.124Z,95197.50
2022-08-03T04:38:44.546Z,95206.13
2022-08-03T04:41:13.090Z,95195.66
2022-08-03T04:43:41.883Z,95241.09
2022-08-03T04:46:09.338Z,95225.50
2022-08-03T04:48:36.359Z,95200.03
2022-08-03T04:51:04.575Z,95216.50
2022-08-03T04:53:31.426Z,95261.13
2022-08-03T04:56:07.408Z,95215.28
2022-08-03T04:58:34.179Z,95259.84
2022-08-03T05:01:00.925Z,95225.63
2022-08-03T05:03:27.683Z,95240.41
2022-08-03T05:06:01.980Z,95228.41
2022-08-03T05:08:41.129Z,95227.41
2022-08-03T05:11:14.115Z,95255.88
2022-08-03T05:13:40.832Z,95234.47
2022-08-03T05:16:07.824Z,95224.00
2022-08-03T05:18:36.064Z,95230.56
2022-08-03T05:21:02.938Z,95282.66
2022-08-03T05:23:29.672Z,95224.41
2022-08-03T05:25:58.691Z,95277.09
2022-08-03T05:28:25.440Z,95223.34
2022-08-03T05:30:52.394Z,95248.16
2022-08-03T05:33:19.288Z,95247.50
2022-08-03T05:35:56.016Z,95279.75
2022-08-03T05:38:34.316Z,95244.53
2022-08-03T05:41:21.699Z,95232.34
2022-08-03T05:43:54.733Z,95284.41
2022-08-03T05:46:23.456Z,95228.25
2022-08-03T05:48:50.547Z,95264.88
2022-08-03T05:51:17.570Z,95219.53
2022-08-03T05:53:44.932Z,95218.63
2022-08-03T05:56:15.357Z,95231.38
2022-08-03T05:58:52.635Z,95220.03
2022-08-03T06:01:22.045Z,95220.91
2022-08-03T06:03:50.263Z,95243.00
2022-08-03T06:06:17.365Z,95241.13
2022-08-03T06:08:45.637Z,95223.25
2022-08-03T06:11:13.373Z,95254.75
2022-08-03T06:13:42.327Z,95221.69
2022-08-03T06:16:09.766Z,95249.72
2022-08-03T06:18:37.350Z,95228.09
2022-08-03T06:21:14.292Z,95240.28
2022-08-03T06:23:53.090Z,95278.47
2022-08-03T06:26:21.021Z,95233.44
2022-08-03T06:28:52.482Z,95241.50
2022-08-03T06:31:32.385Z,95219.00
2022-08-03T06:34:31.654Z,95220.94
2022-08-03T06:36:52.614Z,95220.94
2022-08-03T06:39:19.986Z,95224.22
2022-08-03T06:41:46.837Z,95222.72
2022-08-03T06:44:13.748Z,95228.66
2022-08-03T06:46:40.849Z,95275.31
2022-08-03T06:49:08.344Z,95280.22
2022-08-03T06:52:05.914Z,95229.78
2022-08-03T06:54:24.857Z,95249.13
2022-08-03T06:56:52.171Z,95229.75
2022-08-03T07:00:06.438Z,95262.25
2022-08-03T07:02:06.112Z,95237.84
2022-08-03T07:04:33.463Z,95242.13
2022-08-03T07:07:02.933Z,95228.53
2022-08-03T07:09:29.822Z,95232.22
2022-08-03T07:11:57.206Z,95229.69
2022-08-03T07:14:24.149Z,95231.25
2022-08-03T07:16:51.078Z,95286.78
2022-08-03T07:19:18.045Z,95229.59
2022-08-03T07:21:46.002Z,95230.50
2022-08-03T07:24:13.021Z,95241.16
2022-08-03T07:26:39.895Z,95271.78
2022-08-03T07:29:11.743Z,95250.59
2022-08-03T07:31:42.809Z,95244.66
2022-08-03T07:34:09.702Z,95236.53
2022-08-03T07:36:36.547Z,95269.13
2022-08-03T07:39:15.820Z,95257.69
2022-08-03T07:41:45.178Z,95236.44
2022-08-03T07:44:11.902Z,95245.22
2022-08-03T07:46:38.729Z,95283.09
2022-08-03T07:49:06.087Z,95265.94
2022-08-03T07:51:32.895Z,95286.09
2022-08-03T07:54:01.020Z,95277.28
2022-08-03T07:56:28.350Z,95249.53
2022-08-03T07:58:55.740Z,95253.59
2022-08-03T08:01:23.640Z,95245.59
2022-08-03T08:03:53.250Z,95251.19
2022-08-03T08:06:21.504Z,95295.53
2022-08-03T08:08:48.652Z,95289.25
2022-08-03T08:11:15.659Z,95259.66
2022-08-03T08:13:42.569Z,95306.72
2022-08-03T08:16:09.679Z,95299.59
2022-08-03T08:18:36.784Z,95267.53
2022-08-03T08:21:03.812Z,95285.66
2022-08-03T08:23:43.434Z,95245.25
2022-08-03T08:26:11.811Z,95257.50
2022-08-03T08:28:38.579Z,95262.94
2022-08-03T08:31:05.236Z,95289.78
2022-08-03T08:33:48.343Z,95255.56
2022-08-03T08:36:19.814Z,95257.94
2022-08-03T08:38:46.702Z,95277.09
2022-08-03T08:41:15.095Z,95272.09
2022-08-03T08:43:42.915Z,95258.34
2022-08-03T08:46:23.560Z,95264.72
2022-08-03T08:48:51.933Z,95242.00
2022-08-03T08:51:21.134Z,95237.97
2022-08-03T08:53:53.955Z,95274.69
2022-08-03T08:56:25.680Z,95247.53
2022-08-03T08:58:57.030Z,95279.00
2022-08-03T09:01:24.138Z,95258.63
2022-08-03T09:03:51.475Z,95271.38
2022-08-03T09:06:18.406Z,95252.59
2022-08-03T09:08:45.259Z,95289.94
2022-08-03T09:11:12.344Z,95250.19
2022-08-03T09:13:40.043Z,95245.28
2022-08-03T09:16:21.248Z,95252.00
2022-08-03T09:18:51.104Z,95246.72
2022-08-03T09:21:34.148Z,95284.53
2022-08-03T09:24:04.761Z,95238.84
2022-08-03T09:26:35.187Z,95293.44
2022-08-03T09:29:13.483Z,95269.28
2022-08-03T09:31:46.616Z,95241.94
2022-08-03T09:34:16.781Z,95258.22
2022-08-03T09:36:49.548Z,95258.59
2022-08-03T09:39:18.613Z,95242.63
2022-08-03T09:41:49.138Z,95242.03
2022-08-03T09:44:25.130Z,95263.31
2022-08-03T09:46:56.767Z,95272.56
2022-08-03T09:49:24.979Z,95235.88
2022-08-03T09:52:33.195Z,95279.81
2022-08-03T09:54:43.588Z,95241.88
2022-08-03T09:57:24.886Z,95232.53
2022-08-03T10:00:02.999Z,95228.81
2022-08-03T10:02:33.235Z,95244.34
2022-08-03T10:04:59.925Z,95254.03
2022-08-03T10:07:27.427Z,95234.31
2022-08-03T10:09:56.830Z,95277.53
2022-08-03T10:12:25.004Z,95275.84
2022-08-03T10:14:52.969Z,95251.88
2022-08-03T10:17:21.050Z,95248.41
2022-08-03T10:19:49.173Z,95248.75
2022-08-03T10:22:32.676Z,95225.56
2022-08-03T10:25:11.703Z,95228.53
2022-08-03T10:27:42.480Z,95230.00
2022-08-03T10:30:13.132Z,95233.91
2022-08-03T10:32:55.583Z,95219.31
2022-08-03T10:35:24.272Z,95214.44
2022-08-03T10:38:03.501Z,95202.63
2022-08-03T10:40:47.951Z,95238.16
2022-08-03T10:43:26.344Z,95204.78
2022-08-03T10:45:53.625Z,95199.09
2022-08-03T10:48:21.570Z,95188.53
2022-08-03T10:50:50.602Z,95189.75
2022-08-03T10:53:35.122Z,95189.78
2022-08-03T10:56:27.413Z,95179.19
2022-08-03T10:59:08.908Z,95181.63
2022-08-03T11:02:00.288Z,95236.16
2022-08-03T11:04:30.011Z,95183.63
2022-08-03T11:07:16.125Z,95219.84
2022-08-03T11:09:45.367Z,95190.00
2022-08-03T11:12:31.390Z,95194.94
2022-08-03T11:15:32.551Z,95220.81
2022-08-03T11:18:11.109Z,95173.72
2022-08-03T11:20:53.488Z,95209.94
2022-08-03T11:24:02.759Z,95173.19
2022-08-03T11:26:29.769Z,95159.59
2022-08-03T11:29:29.903Z,95162.84
2022-08-03T11:31:57.560Z,95182.75
2022-08-03T11:34:24.966Z,95150.66
2022-08-03T11:37:26.387Z,95196.25
2022-08-03T11:39:57.345Z,95162.22
2022-08-03T11:42:24.087Z,95193.75
2022-08-03T11:44:55.931Z,95166.88
2022-08-03T11:47:26.967Z,95147.28
2022-08-03T11:49:59.259Z,95171.66
2022-08-03T11:52:28.771Z,95139.53
2022-08-03T11:54:57.197Z,95171.16
2022-08-03T11:59:01.446Z,95157.31
2022-08-03T12:00:26.024Z,95181.66
2022-08-03T12:03:09.499Z,95172.91
2022-08-03T12:05:41.775Z,95127.84
2022-08-03T12:08:30.289Z,95132.69
2022-08-03T12:11:00.122Z,95144.25
2022-08-03T12:14:44.309Z,95135.44
2022-08-03T12:16:19.716Z,95148.75
2022-08-03T12:18:56.874Z,95139.34
2022-08-03T12:21:25.020Z,95126.91
2022-08-03T12:23:56.098Z,95140.25
2022-08-03T12:26:22.871Z,95160.09
2022-08-03T12:28:50.175Z,95119.81
2022-08-03T12:31:17.129Z,95132.97
2022-08-03T12:34:06.561Z,95151.75
2022-08-03T12:36:34.905Z,95105.09
2022-08-03T12:39:05.063Z,95154.69
2022-08-03T12:41:34.780Z,95154.38
2022-08-03T12:44:06.381Z,95126.22
2022-08-03T12:46:41.623Z,95117.69
2022-08-03T12:49:15.625Z,95135.25
2022-08-03T12:51:42.466Z,95146.28
2022-08-03T12:54:15.870Z,95107.25
2022-08-03T12:57:07.018Z,95143.75
2022-08-03T12:59:41.316Z,95111.19
2022-08-03T13:02:24.071Z,95092.50
2022-08-03T13:04:53.243Z,95124.63
2022-08-03T13:07:20.974Z,95104.72
2022-08-03T13:09:50.932Z,95107.16
2022-08-03T13:12:20.989Z,95097.50
2022-08-03T13:14:50.841Z,95089.94
2022-08-03T13:17:18.374Z,95118.94
2022-08-03T13:19:46.763Z,95109.00
2022-08-03T13:22:22.310Z,95109.16
2022-08-03T13:24:51.760Z,95118.41
2022-08-03T13:28:00.949Z,95124.38
2022-08-03T13:30:06.943Z,95114.09
2022-08-03T13:32:34.303Z,95102.97
2022-08-03T13:35:02.810Z,95124.50
2022-08-03T13:37:32.180Z,95103.06
2022-08-03T13:40:02.581Z,95121.59
2022-08-03T13:42:31.707Z,95115.03
2022-08-03T13:44:59.418Z,95122.19
2022-08-03T13:47:26.665Z,95103.91
2022-08-03T13:50:00.174Z,95114.97
2022-08-03T13:52:36.638Z,95116.97
2022-08-03T13:55:05.998Z,95105.81
2022-08-03T13:58:19.024Z,95105.38
2022-08-03T14:00:26.608Z,95092.94
2022-08-03T14:03:13.394Z,95083.97
2022-08-03T14:05:42.690Z,95102.03
2022-08-03T14:08:09.776Z,95050.47
2022-08-03T14:10:39.167Z,95098.31
2022-08-03T14:13:10.590Z,95092.06
2022-08-03T14:15:38.530Z,95075.53
2022-08-03T14:18:12.598Z,95059.19
2022-08-03T14:20:47.806Z,95077.22
2022-08-03T14:23:17.554Z,95061.28
2022-08-03T14:25:51.883Z,95077.97
2022-08-03T14:28:23.075Z,95084.47
2022-08-03T14:30:54.656Z,95031.97
2022-08-03T14:33:21.568Z,95074.81
2022-08-03T14:35:48.793Z,95058.22
2022-08-03T14:38:15.891Z,95039.94
2022-08-03T14:40:42.864Z,95032.28
2022-08-03T14:43:09.574Z,95066.31
2022-08-03T14:45:36.247Z,95056.47
2022-08-03T14:49:02.621Z,95038.88
2022-08-03T14:50:52.772Z,95028.38
2022-08-03T14:53:20.109Z,95040.63
2022-08-03T14:55:50.607Z,95034.91
2022-08-03T14:58:20.674Z,95022.38
2022-08-03T15:00:48.881Z,95022.72
2022-08-03T15:03:16.854Z,95021.91
2022-08-03T15:05:44.393Z,95018.09
2022-08-03T15:08:11.201Z,95023.97
2022-08-03T15:10:44.440Z,95002.66
2022-08-03T15:13:13.227Z,94998.22
2022-08-03T15:15:40.529Z,94991.41
2022-08-03T15:18:07.683Z,95009.50
2022-08-03T15:20:49.914Z,95010.47
2022-08-03T15:23:17.504Z,95007.53
2022-08-03T15:26:04.294Z,94975.47
2022-08-03T15:28:32.411Z,95002.03
2022-08-03T15:30:59.341Z,94998.81
2022-08-03T15:33:27.543Z,94976.47
2022-08-03T15:35:54.300Z,94988.94
2022-08-03T15:38:25.851Z,94964.66
2022-08-03T15:40:56.995Z,94960.38
2022-08-03T15:43:24.131Z,94958.19
2022-08-03T15:46:12.638Z,94956.00
2022-08-03T15:48:38.225Z,94961.34
2022-08-03T15:51:06.158Z,94983.13
2022-08-03T15:53:33.789Z,94971.81
2022-08-03T15:56:02.024Z,94968.56
2022-08-03T15:59:03.758Z,94952.94
2022-08-03T16:01:20.316Z,94955.16
2022-08-03T16:03:47.274Z,94947.75
2022-08-03T16:06:14.002Z,94958.94
2022-08-03T16:08:40.749Z,94962.59
2022-08-03T16:11:07.575Z,94948.97
2022-08-03T16:14:11.960Z,94944.25
2022-08-03T16:16:21.317Z,94950.63
2022-08-03T16:18:48.173Z,94932.84
2022-08-03T16:21:15.225Z,94943.41
2022-08-03T16:23:47.108Z,94937.09
2022-08-03T16:26:14.650Z,94934.75
2022-08-03T16:28:41.660Z,94965.31
2022-08-03T16:31:09.294Z,94951.47
2022-08-03T16:33:36.395Z,94934.84
2022-08-03T16:36:03.395Z,94960.00
2022-08-03T16:38:30.704Z,94930.41
2022-08-03T16:40:57.738Z,94931.72
2022-08-03T16:43:24.988Z,94931.16
2022-08-03T16:45:52.302Z,94931.41
2022-08-03T16:48:19.899Z,94924.47
2022-08-03T16:50:47.528Z,94926.91
2022-08-03T16:53:15.692Z,94951.63
2022-08-03T16:55:52.385Z,94951.88
2022-08-03T16:58:34.847Z,94940.50
2022-08-03T17:01:21.618Z,94931.22
2022-08-03T17:04:01.515Z,94951.88
2022-08-03T17:06:35.515Z,94955.06
2022-08-03T17:09:08.699Z,94954.81
2022-08-03T17:11:38.208Z,94971.38
2022-08-03T17:14:09.489Z,94970.06
2022-08-03T17:16:38.450Z,94962.09
2022-08-03T17:19:07.526Z,94967.41
2022-08-03T17:21:39.090Z,94968.84
2022-08-03T17:24:23.967Z,94966.63
2022-08-03T17:26:53.654Z,94962.13
2022-08-03T17:29:25.173Z,94971.75
2022-08-03T17:31:53.039Z,94972.16
2022-08-03T17:34:20.663Z,94984.97
2022-08-03T17:37:27.094Z,94971.53
2022-08-03T17:40:00.027Z,94971.97
2022-08-03T17:42:30.542Z,94977.78
2022-08-03T17:45:02.348Z,94992.97
2022-08-03T17:47:42.056Z,94980.34
2022-08-03T17:50:25.176Z,94980.59
2022-08-03T17:53:07.641Z,94991.56
2022-08-03T17:55:54.800Z,94984.19
2022-08-03T17:58:54.834Z,94988.00
2022-08-03T18:02:06.487Z,94992.94
2022-08-03T18:04:41.770Z,95002.47
2022-08-03T18:07:12.467Z,94992.88
2022-08-03T18:10:04.314Z,94995.28
2022-08-03T18:12:40.172Z,95002.19
2022-08-03T18:15:21.006Z,95004.47
2022-08-03T18:17:55.873Z,95001.84
2022-08-03T18:20:34.246Z,95005.09
2022-08-03T18:23:06.154Z,95010.38
2022-08-03T18:25:42.652Z,95008.94
2022-08-03T18:28:18.881Z,95004.81
2022-08-03T18:30:54.009Z,95008.44
2022-08-03T18:34:19.156Z,95012.63
2022-08-03T18:36:17.494Z,95010.94
2022-08-03T18:38:49.146Z,95009.50
2022-08-03T18:41:21.992Z,95013.97
2022-08-03T18:44:08.203Z,95016.22
2022-08-03T18:49:40.170Z,95019.72
2022-08-03T18:52:17.678Z,95017.94
2022-08-03T18:55:04.485Z,95019.88
2022-08-03T18:57:49.249Z,95017.38
2022-08-03T19:00:24.907Z,95007.31
2022-08-03T19:03:12.248Z,95015.34
2022-08-03T19:08:49.481Z,95019.88
2022-08-03T19:12:13.242Z,95008.06
2022-08-03T19:14:36.281Z,95021.75
2022-08-03T19:17:09.872Z,94982.16
2022-08-03T19:19:44.096Z,95002.78
2022-08-03T19:22:15.934Z,95007.16
2022-08-03T19:24:45.663Z,94974.25
2022-08-03T19:27:12.956Z,94981.91
2022-08-03T19:29:59.435Z,94982.28
2022-08-03T19:32:29.547Z,95019.16
2022-08-03T19:34:59.553Z,95028.09
2022-08-03T19:37:38.596Z,95031.22
2022-08-03T19:40:10.255Z,94982.41
2022-08-03T19:42:44.415Z,95013.84
2022-08-03T19:45:14.690Z,95011.31
2022-08-03T19:47:45.827Z,95043.38
2022-08-03T19:50:14.223Z,94989.34
2022-08-03T19:52:43.950Z,95012.41
2022-08-03T19:55:12.139Z,95024.09
2022-08-03T19:57:42.598Z,95045.72
2022-08-03T20:00:12.578Z,95023.78
2022-08-03T20:02:41.347Z,95022.50
2022-08-03T20:05:15.524Z,95050.28
2022-08-03T20:07:47.483Z,95043.69
2022-08-03T20:10:16.045Z,95051.16
2022-08-03T20:12:44.510Z,95050.34
2022-08-03T20:15:12.071Z,95060.34
2022-08-03T20:17:56.418Z,95051.41
2022-08-03T20:20:27.413Z,95052.69
2022-08-03T20:22:57.790Z,95052.63
2022-08-03T20:25:38.228Z,95041.25
2022-08-03T20:28:13.621Z,95050.38
2022-08-03T20:30:43.964Z,95052.31
2022-08-03T20:33:11.289Z,95051.28
2022-08-03T20:35:38.125Z,95044.78
2022-08-03T20:38:09.335Z,95051.31
2022-08-03T20:40:36.303Z,95046.28
2022-08-03T20:43:04.797Z,95051.56
2022-08-03T20:46:00.945Z,95051.09
2022-08-03T20:48:18.421Z,95042.59
2022-08-03T20:50:49.536Z,95047.84
2022-08-03T20:53:56.860Z,95037.84
2022-08-03T20:56:05.011Z,95048.53
2022-08-03T20:58:35.661Z,95042.84
2022-08-03T21:01:03.321Z,95047.03
2022-08-03T21:03:40.859Z,95052.41
2022-08-03T21:06:27.858Z,95043.06
2022-08-03T21:09:00.409Z,95047.72
2022-08-03T21:11:41.771Z,95043.91
2022-08-03T21:13:01.363Z,95017.53
2022-08-03T21:14:37.785Z,95050.22
2022-08-03T21:17:14.012Z,95050.28
2022-08-03T21:19:52.180Z,95048.63
2022-08-03T21:22:23.180Z,95038.59
2022-08-03T21:24:55.749Z,95040.75
2022-08-03T21:27:23.970Z,95037.31
2022-08-03T21:29:53.025Z,95037.22
2022-08-03T21:32:32.615Z,95045.19
2022-08-03T21:35:01.264Z,95054.84
2022-08-03T21:37:29.120Z,95046.66
2022-08-03T21:39:56.699Z,95046.06
2022-08-03T21:42:24.041Z,95039.63
2022-08-03T21:44:54.596Z,95043.06
2022-08-03T21:47:23.785Z,95046.97
2022-08-03T21:50:08.559Z,95050.81
2022-08-03T21:52:41.613Z,95053.75
2022-08-03T21:55:09.082Z,95051.44
2022-08-03T21:57:53.564Z,95060.06
2022-08-03T22:00:23.287Z,95053.63
2022-08-03T22:02:57.369Z,95052.47
2022-08-03T22:05:42.999Z,95063.97
2022-08-03T22:08:14.190Z,95053.91
2022-08-03T22:10:43.748Z,95059.91
2022-08-03T22:13:11.870Z,95063.97
2022-08-03T22:15:38.646Z,95059.41
2022-08-03T22:18:05.498Z,95066.06
2022-08-03T22:20:32.298Z,95075.81
2022-08-03T22:23:05.491Z,95068.13
2022-08-03T22:25:35.316Z,95060.59
2022-08-03T22:28:11.606Z,95071.50
2022-08-03T22:30:40.274Z,95078.97
2022-08-03T22:33:11.692Z,95078.06
2022-08-03T22:35:44.271Z,95080.44
2022-08-03T22:38:15.505Z,95084.19
2022-08-03T22:40:42.760Z,95071.25
2022-08-03T22:43:09.398Z,95070.84
2022-08-03T22:46:07.647Z,95081.69
2022-08-03T22:48:23.535Z,95080.50
2022-08-03T22:50:50.351Z,95079.91
2022-08-03T22:53:22.097Z,95087.78
2022-08-03T22:55:49.639Z,95085.53
2022-08-03T22:58:16.880Z,95090.94
2022-08-03T23:01:05.990Z,95086.94
2022-08-03T23:03:58.678Z,95090.69
2022-08-03T23:06:26.390Z,95094.00
2022-08-03T23:08:54.001Z,95091.91
2022-08-03T23:11:23.999Z,95088.75
2022-08-03T23:13:54.370Z,95094.38
2022-08-03T23:16:28.633Z,95078.50
2022-08-03T23:18:58.690Z,95089.06
2022-08-03T23:22:00.132Z,95096.09
2022-08-03T23:24:26.043Z,95093.72
2022-08-03T23:26:57.118Z,95091.34
2022-08-03T23:29:23.927Z,95100.84
2022-08-03T23:31:52.816Z,95094.91
2022-08-03T23:34:37.976Z,95090.72
2022-08-03T23:37:05.714Z,95095.78
2022-08-03T23:39:35.340Z,95091.03
2022-08-03T23:42:03.133Z,95101.16
2022-08-03T23:44:36.172Z,95087.91
2022-08-03T23:47:02.869Z,95077.34
2022-08-03T23:49:29.618Z,95095.19
2022-08-03T23:52:17.656Z,95100.28
2022-08-03T23:55:06.155Z,95091.03
2022-08-03T23:58:00.829Z,95099.06
